Flight Track Log - Related Links

Times and Time Zones

All times are in EDT time to prevent confusion due to time zone crossing. See the N95445 flight status page for this flight to view local times or setup timezone preferences in your user account.

Time Position Orientation Groundspeed Altitude Reporting Facility
EDT Latitude Longitude Course Direction KTS MPH feet Rate Location/Type
Wed 01:31:12 PM 41.0975 -81.4947 213° Southwest 77 89 4,600  Level Indianapolis Center
Wed 01:32:14 PM 41.0733 -81.5158 213° Southwest 90 104 4,600 -48 Level Indianapolis Center
Wed 01:33:16 PM 41.0517 -81.5406 221° Southwest 99 114 4,500  Descending Indianapolis Center
Wed 01:34:18 PM 41.0325 -81.5769 235° Southwest 101 116 4,600 48 Climbing Indianapolis Center
Wed 01:35:20 PM 41.0158 -81.6092 236° Southwest 102 117 4,600  Level Indianapolis Center
Wed 01:36:21 PM 40.9972 -81.6411 232° Southwest 106 122 4,600 -32 Level Indianapolis Center
Wed 01:38:25 PM 40.9536 -81.6917 221° Southwest 103 119 4,500  Descending Indianapolis Center
Wed 01:39:27 PM 40.9317 -81.7161 220° Southwest 102 117 4,600 48 Climbing Indianapolis Center
Wed 01:40:29 PM 40.9075 -81.7411 218° Southwest 105 121 4,600 -49 Level Indianapolis Center
Wed 01:41:30 PM 40.8872 -81.7689 226° Southwest 105 121 4,500  Descending Indianapolis Center
Wed 01:42:32 PM 40.8667 -81.7981 227° Southwest 106 122 4,600 97 Climbing Indianapolis Center
Wed 01:43:34 PM 40.8478 -81.8289 231° Southwest 106 122 4,700  Climbing Indianapolis Center
Wed 01:44:36 PM 40.8231 -81.8642 227° Southwest 109 125 4,600 -49 Descending Indianapolis Center
Wed 01:45:37 PM 40.7975 -81.8908 218° Southwest 113 130 4,600  Level Indianapolis Center
Wed 01:46:39 PM 40.7817 -81.9219 236° Southwest 106 122 4,600 -145 Level Indianapolis Center
Wed 01:47:41 PM 40.7617 -81.9464 223° Southwest 101 116 4,300 -98 Descending Indianapolis Center
Wed 01:48:42 PM 40.7428 -81.9739 228° Southwest 100 115 4,400 98 Climbing Indianapolis Center
Wed 01:49:44 PM 40.7200 -81.9986 219° Southwest 102 117 4,500 48 Climbing Indianapolis Center
Wed 01:50:46 PM 40.6986 -82.0278 226° Southwest 106 122 4,500  Level Indianapolis Center
Wed 01:51:48 PM 40.6783 -82.0558 226° Southwest 106 122 4,500  Level Indianapolis Center
Wed 01:52:49 PM 40.6594 -82.0842 229° Southwest 104 120 4,500 -49 Level Indianapolis Center
Wed 01:53:51 PM 40.6353 -82.1156 225° Southwest 104 120 4,400 48 Descending Indianapolis Center
Wed 01:54:53 PM 40.6142 -82.1414 223° Southwest 102 117 4,600 48 Climbing Indianapolis Center
Wed 01:55:55 PM 40.5911 -82.1653 218° Southwest 103 119 4,500 -48 Descending Indianapolis Center
Wed 01:56:57 PM 40.5736 -82.1947 232° Southwest 101 116 4,500  Level Indianapolis Center
Wed 01:57:58 PM 40.5550 -82.2253 231° Southwest 105 121 4,500  Level Indianapolis Center
Wed 01:59:00 PM 40.5372 -82.2539 231° Southwest 102 117 4,500 -56 Level Indianapolis Center
Wed 01:59:45 PM 40.5222 -82.2817 235° Southwest 106 122 4,400 -97 Descending Indianapolis Center
Wed 02:00:02 PM 40.5186 -82.2861 223° Southwest 107 123 4,400 90 Level Indianapolis Center
Wed 02:00:52 PM 40.5014 -82.3153 232° Southwest 105 121 4,500 57 Climbing Indianapolis Center
Wed 02:01:47 PM 40.4869 -82.3439 236° Southwest 98 113 4,500  Level Indianapolis Center
Wed 02:02:06 PM 40.4844 -82.3450 199° South 102 117 4,500  Level Indianapolis Center
Wed 02:02:48 PM 40.4683 -82.3719 232° Southwest 111 128 4,500  Level Indianapolis Center
Wed 02:03:07 PM 40.4619 -82.3786 218° Southwest 104 120 4,500 -197 Level Indianapolis Center
Wed 02:03:49 PM 40.4461 -82.3942 217° Southwest 103 119 4,300  Descending Indianapolis Center
Wed 02:04:09 PM 40.4383 -82.3992 206° Southwest 101 116 4,500 197 Climbing Indianapolis Center
Wed 02:04:50 PM 40.4239 -82.4164 222° Southwest 100 115 4,500  Level Indianapolis Center
Wed 02:05:11 PM 40.4142 -82.4203 197° South 103 119 4,500  Level Indianapolis Center
Wed 02:05:50 PM 40.4014 -82.4386 228° Southwest 103 119 4,500  Level Indianapolis Center
Wed 02:06:13 PM 40.3936 -82.4472 220° Southwest 103 119 4,500  Level Indianapolis Center
Wed 02:06:51 PM 40.3767 -82.4661 220° Southwest 106 122 4,500  Level Indianapolis Center
Wed 02:07:15 PM 40.3692 -82.4700 202° Southwest 103 119 4,500  Level Indianapolis Center
Wed 02:09:00 PM 40.3167 -82.5167 217° Southwest  Level FlightAware Approximate
Wed 02:16:00 PM 40.3289 -82.5261 217° Southwest  Level Estimated
Wed 02:17:00 PM 40.3289 -82.5261 217° Southwest  Level Estimated

Login

Don't have an account? Register now (free) for customized features, flight alerts, and more!